Time;durP1;ratioP1;P1;durP2;ratioP2;P2;SDS_P1;SDS_P2;PMS_P1;PMS_P2;Temp;Humidity;BMP_temperature;BMP_pressure;BME280_temperature;BME280_humidity;BME280_pressure;Samples;Min_cycle;Max_cycle;Signal;HPM_P1;HPM_P2
2022/12/25 00:02:14;;;;;;;;;;;;;;;;;;5093908;28;20387;-68
2022/12/25 00:04:40;;;;;;;;;;;;;;;;;;5093547;28;19908;-68
2022/12/25 00:07:06;;;;;;;;;;;;;;;;;;5093671;28;19908;-67
2022/12/25 00:09:32;;;;;;;;;;;;;;;;;;5093708;28;19969;-67
2022/12/25 00:11:58;;;;;;;;;;;;;;;;;;5093295;28;19927;-67
2022/12/25 00:14:24;;;;;;;;;;;;;;;;;;5092490;28;19909;-67
2022/12/25 00:16:49;;;;;;;;;;;;;;;;;;5093423;28;19994;-67
2022/12/25 00:19:15;;;;;;;;;;;;;;;;;;5093716;28;19916;-67
2022/12/25 00:21:41;;;;;;;;;;;;;;;;;;5093662;28;19912;-68
2022/12/25 00:24:07;;;;;;;;;;;;;;;;;;5091996;28;19958;-67
2022/12/25 00:26:33;;;;;;;;;;;;;;;;;;5093598;28;19915;-68
2022/12/25 00:28:59;;;;;;;;;;;;;;;;;;5092317;28;19912;-68
2022/12/25 00:31:25;;;;;;;;;;;;;;;;;;5093264;28;20011;-67
2022/12/25 00:33:51;;;;;;;;;;;;;;;;;;5092331;28;20315;-67
2022/12/25 00:36:17;;;;;;;;;;;;;;;;;;5092301;28;19914;-68
2022/12/25 00:38:43;;;;;;;;;;;;;;;;;;5093195;28;19908;-67
2022/12/25 00:41:09;;;;;;;;;;;;;;;;;;5093728;28;20045;-67
2022/12/25 00:43:35;;;;;;;;;;;;;;;;;;5093585;28;19915;-67
2022/12/25 00:46:01;;;;;;;;;;;;;;;;;;5093157;28;20007;-67
2022/12/25 00:48:27;;;;;;;;;;;;;;;;;;5093455;28;19977;-67
2022/12/25 00:50:53;;;;;;;;;;;;;;;;;;5093308;28;19974;-67
2022/12/25 00:53:19;;;;;;;;;;;;;;;;;;5092993;28;19912;-67
2022/12/25 00:55:45;;;;;;;;;;;;;;;;;;5092180;28;19908;-67
2022/12/25 00:58:11;;;;;;;;;;;;;;;;;;5093449;28;19999;-67
2022/12/25 01:00:37;;;;;;;;;;;;;;;;;;5091792;28;19915;-67
2022/12/25 01:03:02;;;;;;;;;;;;;;;;;;5093362;28;19931;-69
2022/12/25 01:05:28;;;;;;;;;;;;;;;;;;5093279;28;19908;-67
2022/12/25 01:07:54;;;;;;;;;;;;;;;;;;5092895;28;19954;-68
2022/12/25 01:10:23;;;;;;;;;;;;;;;;;;5092986;28;19923;-68
2022/12/25 01:12:49;;;;;;;;;;;;;;;;;;5093262;28;19915;-67
2022/12/25 01:15:15;;;;;;;;;;;;;;;;;;5092791;28;19908;-68
2022/12/25 01:17:41;;;;;;;;;;;;;;;;;;5093443;28;19912;-67
2022/12/25 01:20:07;;;;;;;;;;;;;;;;;;5096681;28;19908;-67
2022/12/25 01:22:33;;;;;;;;;;;;;;;;;;5096817;28;19908;-68
2022/12/25 01:24:59;;;;;;;;;;;;;;;;;;5096772;28;19908;-67
2022/12/25 01:27:25;;;;;;;;;;;;;;;;;;5096295;28;19947;-68
2022/12/25 01:29:51;;;;;;;;;;;;;;;;;;5096667;28;19935;-67
2022/12/25 01:32:17;;;;;;;;;;;;;;;;;;5096519;28;19916;-67
2022/12/25 01:34:43;;;;;;;;;;;;;;;;;;5095009;28;19993;-67
2022/12/25 01:37:09;;;;;;;;;;;;;;;;;;5096511;28;19908;-67
2022/12/25 01:39:35;;;;;;;;;;;;;;;;;;5096453;28;19915;-67
2022/12/25 01:42:00;;;;;;;;;;;;;;;;;;5096011;28;19912;-67
2022/12/25 01:44:26;;;;;;;;;;;;;;;;;;5096464;28;19912;-67
2022/12/25 01:46:52;;;;;;;;;;;;;;;;;;5096669;28;19930;-67
2022/12/25 01:49:18;;;;;;;;;;;;;;;;;;5095876;28;19912;-67
2022/12/25 01:51:44;;;;;;;;;;;;;;;;;;5096161;28;19916;-67
2022/12/25 01:54:10;;;;;;;;;;;;;;;;;;5096560;28;19916;-68
2022/12/25 01:56:36;;;;;;;;;;;;;;;;;;5094479;28;20369;-67
2022/12/25 01:59:02;;;;;;;;;;;;;;;;;;5096375;28;20383;-67
2022/12/25 02:01:28;;;;;;;;;;;;;;;;;;5096109;28;20252;-67
2022/12/25 02:03:54;;;;;;;;;;;;;;;;;;5095779;28;20277;-67
2022/12/25 02:06:20;;;;;;;;;;;;;;;;;;5094654;28;20322;-67
2022/12/25 02:08:46;;;;;;;;;;;;;;;;;;5095929;28;19908;-67
2022/12/25 02:11:55;;;;;;;;;;;;;;;;;;5093900;28;19927;-67
2022/12/25 02:13:57;;;;;;;;;;;;;;;;;;5095691;28;19953;-67
2022/12/25 02:16:24;;;;;;;;;;;;;;;;;;5095486;28;20002;-67
2022/12/25 02:18:50;;;;;;;;;;;;;;;;;;5095724;28;20001;-67
2022/12/25 02:21:16;;;;;;;;;;;;;;;;;;5095751;28;19908;-67
2022/12/25 02:23:42;;;;;;;;;;;;;;;;;;5095813;28;20383;-67
2022/12/25 02:26:07;;;;;;;;;;;;;;;;;;5096076;28;20368;-67
2022/12/25 02:28:33;;;;;;;;;;;;;;;;;;5094250;28;19915;-67
2022/12/25 02:30:59;;;;;;;;;;;;;;;;;;5095088;28;19912;-67
2022/12/25 02:36:10;;;;;;;;;;;;;;;;;;5095423;28;19977;-67
2022/12/25 02:38:36;;;;;;;;;;;;;;;;;;5094915;28;20368;-67
2022/12/25 02:41:02;;;;;;;;;;;;;;;;;;5095323;28;20265;-67
2022/12/25 03:08:10;;;;;;;;;;;;;;;;;;5094921;28;20310;-67
2022/12/25 03:13:20;;;;;;;;;;;;;;;;;;5094366;28;19918;-67
2022/12/25 03:18:31;;;;;;;;;;;;;;;;;;5094653;28;19926;-67
2022/12/25 03:31:10;;;;;;;;;;;;;;;;;;5094515;28;19918;-67
2022/12/25 03:31:56;;;;;;;;;;;;;;;;;;5094422;28;19916;-67
2022/12/25 04:37:14;;;;;;;;;;;;;;;;;;5093385;28;20283;-67
2022/12/25 04:39:39;;;;;;;;;;;;;;;;;;5093895;28;19909;-67
2022/12/25 04:42:05;;;;;;;;;;;;;;;;;;5092248;28;19915;-67
2022/12/25 04:44:31;;;;;;;;;;;;;;;;;;5093256;28;19912;-67
2022/12/25 04:46:57;;;;;;;;;;;;;;;;;;5092304;28;20386;-67
2022/12/25 04:49:23;;;;;;;;;;;;;;;;;;5093463;28;20406;-67
2022/12/25 04:51:49;;;;;;;;;;;;;;;;;;5093400;28;20364;-67
2022/12/25 04:54:15;;;;;;;;;;;;;;;;;;5096536;28;20368;-67
2022/12/25 04:56:41;;;;;;;;;;;;;;;;;;5096078;28;20407;-67
2022/12/25 04:59:07;;;;;;;;;;;;;;;;;;5097005;28;20307;-67
2022/12/25 05:01:33;;;;;;;;;;;;;;;;;;5097332;28;20387;-68
2022/12/25 05:03:59;;;;;;;;;;;;;;;;;;5096009;28;19915;-67
2022/12/25 05:06:25;;;;;;;;;;;;;;;;;;5096878;28;19908;-67
2022/12/25 05:08:51;;;;;;;;;;;;;;;;;;5097416;28;19962;-67
2022/12/25 05:11:17;;;;;;;;;;;;;;;;;;5096884;28;19927;-67
2022/12/25 05:13:43;;;;;;;;;;;;;;;;;;5096719;28;20258;-67
2022/12/25 05:16:08;;;;;;;;;;;;;;;;;;5097006;28;20280;-67
2022/12/25 05:18:34;;;;;;;;;;;;;;;;;;5096967;28;20272;-68
2022/12/25 05:21:00;;;;;;;;;;;;;;;;;;5096542;28;20225;-67
2022/12/25 05:23:26;;;;;;;;;;;;;;;;;;5096932;28;19931;-67
2022/12/25 05:25:52;;;;;;;;;;;;;;;;;;5095520;28;19999;-67
2022/12/25 05:28:18;;;;;;;;;;;;;;;;;;5096358;28;19969;-67
2022/12/25 05:30:44;;;;;;;;;;;;;;;;;;5096847;28;19912;-67
2022/12/25 05:33:10;;;;;;;;;;;;;;;;;;5097088;28;19954;-67
2022/12/25 05:35:36;;;;;;;;;;;;;;;;;;5096253;28;19949;-67
2022/12/25 05:38:02;;;;;;;;;;;;;;;;;;5095302;28;20280;-68
2022/12/25 05:40:28;;;;;;;;;;;;;;;;;;5096232;28;19908;-67
2022/12/25 05:42:54;;;;;;;;;;;;;;;;;;5096510;28;19908;-67
2022/12/25 05:45:20;;;;;;;;;;;;;;;;;;5096852;28;19955;-67
2022/12/25 05:47:46;;;;;;;;;;;;;;;;;;5096446;28;19908;-67
2022/12/25 05:50:12;;;;;;;;;;;;;;;;;;5096829;28;19908;-67
2022/12/25 05:52:38;;;;;;;;;;;;;;;;;;5094996;28;20062;-67
2022/12/25 05:55:04;;;;;;;;;;;;;;;;;;5095830;28;20280;-67
2022/12/25 05:57:30;;;;;;;;;;;;;;;;;;5096588;28;20284;-67
2022/12/25 05:59:56;;;;;;;;;;;;;;;;;;5096669;28;20396;-67
2022/12/25 06:02:21;;;;;;;;;;;;;;;;;;5094420;28;20326;-68
2022/12/25 06:04:47;;;;;;;;;;;;;;;;;;5095737;28;20273;-68
2022/12/25 06:07:13;;;;;;;;;;;;;;;;;;5096179;28;19912;-67
2022/12/25 06:09:39;;;;;;;;;;;;;;;;;;5095311;28;19908;-67
2022/12/25 06:12:05;;;;;;;;;;;;;;;;;;5094512;28;20330;-67
2022/12/25 06:14:31;;;;;;;;;;;;;;;;;;5094646;28;19912;-67
2022/12/25 06:16:57;;;;;;;;;;;;;;;;;;5094148;28;20011;-67
2022/12/25 06:19:23;;;;;;;;;;;;;;;;;;5095931;28;19912;-67
2022/12/25 06:21:49;;;;;;;;;;;;;;;;;;5095726;28;20418;-67
2022/12/25 06:24:15;;;;;;;;;;;;;;;;;;5094038;28;20288;-67
2022/12/25 06:26:41;;;;;;;;;;;;;;;;;;5095666;28;20303;-67
2022/12/25 06:29:07;;;;;;;;;;;;;;;;;;5095551;28;20269;-67
2022/12/25 06:31:33;;;;;;;;;;;;;;;;;;5095076;28;19924;-67
2022/12/25 06:33:59;;;;;;;;;;;;;;;;;;5094166;28;19914;-67
2022/12/25 06:36:25;;;;;;;;;;;;;;;;;;5095403;28;19909;-67
2022/12/25 06:38:51;;;;;;;;;;;;;;;;;;5093965;28;19958;-67
2022/12/25 06:41:17;;;;;;;;;;;;;;;;;;5095358;28;19908;-67
2022/12/25 06:43:42;;;;;;;;;;;;;;;;;;5094897;28;19994;-69
2022/12/25 06:46:08;;;;;;;;;;;;;;;;;;5095305;28;19915;-67
2022/12/25 06:48:34;;;;;;;;;;;;;;;;;;5095148;28;19916;-67
2022/12/25 06:51:00;;;;;;;;;;;;;;;;;;5094959;28;20006;-68
2022/12/25 06:53:26;;;;;;;;;;;;;;;;;;5095157;28;19915;-67
2022/12/25 06:55:52;;;;;;;;;;;;;;;;;;5095198;28;20331;-67
2022/12/25 06:58:18;;;;;;;;;;;;;;;;;;5094667;28;20299;-67
2022/12/25 07:00:44;;;;;;;;;;;;;;;;;;5094961;28;20218;-67
2022/12/25 07:03:10;;;;;;;;;;;;;;;;;;5095229;28;19915;-67
2022/12/25 07:05:36;;;;;;;;;;;;;;;;;;5094505;28;19908;-67
2022/12/25 07:08:02;;;;;;;;;;;;;;;;;;5094923;28;19962;-67
2022/12/25 07:10:28;;;;;;;;;;;;;;;;;;5094575;28;19924;-67
2022/12/25 07:12:54;;;;;;;;;;;;;;;;;;5094542;28;19919;-68
2022/12/25 07:15:20;;;;;;;;;;;;;;;;;;5094411;28;20042;-67
2022/12/25 07:17:46;;;;;;;;;;;;;;;;;;5094640;28;19963;-67
2022/12/25 07:20:12;;;;;;;;;;;;;;;;;;5094250;28;20272;-67
2022/12/25 07:22:38;;;;;;;;;;;;;;;;;;5094568;28;19908;-67
2022/12/25 07:25:04;;;;;;;;;;;;;;;;;;5094682;28;19908;-67
2022/12/25 07:27:30;;;;;;;;;;;;;;;;;;5094158;28;19915;-67
2022/12/25 07:29:55;;;;;;;;;;;;;;;;;;5094424;28;19912;-67
2022/12/25 07:32:21;;;;;;;;;;;;;;;;;;5094370;28;19965;-68
2022/12/25 07:34:47;;;;;;;;;;;;;;;;;;5094104;28;19919;-68
2022/12/25 07:37:13;;;;;;;;;;;;;;;;;;5094483;28;19908;-68
2022/12/25 07:39:39;;;;;;;;;;;;;;;;;;5094444;28;19990;-67
2022/12/25 07:42:05;;;;;;;;;;;;;;;;;;5093890;28;19908;-69
2022/12/25 07:44:31;;;;;;;;;;;;;;;;;;5094229;28;19919;-67
2022/12/25 07:46:57;;;;;;;;;;;;;;;;;;5093805;28;19908;-67
2022/12/25 07:49:23;;;;;;;;;;;;;;;;;;5094096;28;19943;-67
2022/12/25 07:51:49;;;;;;;;;;;;;;;;;;5093878;28;19916;-68
2022/12/25 07:54:15;;;;;;;;;;;;;;;;;;5093651;28;20004;-67
2022/12/25 07:56:41;;;;;;;;;;;;;;;;;;5092706;28;19912;-67
2022/12/25 07:59:07;;;;;;;;;;;;;;;;;;5093983;28;19908;-68
2022/12/25 08:01:33;;;;;;;;;;;;;;;;;;5093590;28;19915;-67
2022/12/25 08:03:59;;;;;;;;;;;;;;;;;;5094100;28;19912;-68
2022/12/25 08:06:28;;;;;;;;;;;;;;;;;;5092723;28;19958;-67
2022/12/25 08:08:54;;;;;;;;;;;;;;;;;;5093353;28;19916;-68
2022/12/25 08:11:20;;;;;;;;;;;;;;;;;;5093681;28;19920;-67
2022/12/25 08:13:46;;;;;;;;;;;;;;;;;;5093797;28;19923;-67
2022/12/25 08:16:12;;;;;;;;;;;;;;;;;;5093495;28;19908;-68
2022/12/25 08:18:38;;;;;;;;;;;;;;;;;;5093799;28;19908;-67
2022/12/25 08:21:04;;;;;;;;;;;;;;;;;;5094601;28;19914;-68
2022/12/25 08:23:30;;;;;;;;;;;;;;;;;;5093303;28;19908;-68
2022/12/25 08:25:56;;;;;;;;;;;;;;;;;;5093753;28;19954;-69
2022/12/25 08:28:22;;;;;;;;;;;;;;;;;;5097090;28;19908;-69
2022/12/25 08:30:48;;;;;;;;;;;;;;;;;;5097446;28;19920;-69
2022/12/25 08:33:14;;;;;;;;;;;;;;;;;;5097920;28;19916;-69
2022/12/25 08:35:40;;;;;;;;;;;;;;;;;;5097866;28;19912;-69
2022/12/25 08:38:05;;;;;;;;;;;;;;;;;;5097426;28;19950;-69
2022/12/25 08:40:31;;;;;;;;;;;;;;;;;;5097711;28;20347;-69
2022/12/25 08:42:57;;;;;;;;;;;;;;;;;;5097709;28;20233;-69
2022/12/25 08:45:23;;;;;;;;;;;;;;;;;;5097289;28;19958;-69
2022/12/25 08:47:49;;;;;;;;;;;;;;;;;;5097598;28;19915;-69
2022/12/25 08:50:15;;;;;;;;;;;;;;;;;;5097089;28;19908;-69
2022/12/25 08:52:41;;;;;;;;;;;;;;;;;;5097511;28;20012;-69
2022/12/25 08:55:07;;;;;;;;;;;;;;;;;;5097432;28;19923;-69
2022/12/25 08:57:33;;;;;;;;;;;;;;;;;;5095714;28;19908;-69
2022/12/25 08:59:59;;;;;;;;;;;;;;;;;;5097239;28;19944;-69
2022/12/25 09:02:25;;;;;;;;;;;;;;;;;;5097260;28;19915;-69
2022/12/25 09:04:51;;;;;;;;;;;;;;;;;;5095547;28;20287;-69
2022/12/25 09:07:17;;;;;;;;;;;;;;;;;;5097164;28;19953;-69
2022/12/25 09:09:43;;;;;;;;;;;;;;;;;;5096886;28;19995;-69
2022/12/25 09:12:09;;;;;;;;;;;;;;;;;;5095334;28;20352;-69
2022/12/25 09:14:35;;;;;;;;;;;;;;;;;;5097309;28;19915;-69
2022/12/25 09:17:01;;;;;;;;;;;;;;;;;;5097034;28;19912;-69
2022/12/25 09:19:27;;;;;;;;;;;;;;;;;;5096482;28;20003;-69
2022/12/25 09:21:53;;;;;;;;;;;;;;;;;;5096947;28;19913;-69
2022/12/25 09:24:19;;;;;;;;;;;;;;;;;;5095681;28;20292;-69
2022/12/25 09:26:45;;;;;;;;;;;;;;;;;;5096539;28;19976;-69
2022/12/25 09:29:13;;;;;;;;;;;;;;;;;;5096921;28;20356;-70
2022/12/25 09:31:39;;;;;;;;;;;;;;;;;;5096731;28;19916;-70
2022/12/25 09:34:05;;;;;;;;;;;;;;;;;;5095095;28;19908;-69
2022/12/25 09:36:31;;;;;;;;;;;;;;;;;;5096973;28;19960;-69
2022/12/25 09:38:57;;;;;;;;;;;;;;;;;;5095944;28;19915;-69
2022/12/25 09:41:23;;;;;;;;;;;;;;;;;;5096320;28;19912;-69
2022/12/25 09:47:44;;;;;;;;;;;;;;;;;;5090784;27;20295;-69
2022/12/25 09:54:15;;;;;;;;;;;;;;;;;;5111774;27;19919;-69
2022/12/25 09:57:50;;;;;;;;;;;;;;;;;;5112319;27;19916;-68
2022/12/25 10:02:45;;;;;;;;;;;;;;;;;;5090935;27;19922;-68
2022/12/25 10:07:34;;;;;;;;;;;;;;;;;;5111680;27;19913;-68
2022/12/25 10:13:56;;;;;;;;;;;;;;;;;;5111909;27;19916;-68
2022/12/25 10:16:22;;;;;;;;;;;;;;;;;;5111208;28;20352;-68
2022/12/25 10:18:48;;;;;;;;;;;;;;;;;;5111462;28;19953;-68
2022/12/25 10:21:14;;;;;;;;;;;;;;;;;;5111487;28;19915;-68
2022/12/25 10:23:40;;;;;;;;;;;;;;;;;;5111048;28;19916;-69
2022/12/25 10:26:25;;;;;;;;;;;;;;;;;;5111777;27;19938;-69
2022/12/25 10:32:14;;;;;;;;;;;;;;;;;;5111800;27;19922;-68
2022/12/25 10:34:42;;;;;;;;;;;;;;;;;;5111578;28;19919;-68
2022/12/25 10:39:53;;;;;;;;;;;;;;;;;;5112307;27;19926;-68
2022/12/25 10:42:19;;;;;;;;;;;;;;;;;;5111583;28;20007;-68
2022/12/25 10:44:45;;;;;;;;;;;;;;;;;;5111183;28;19912;-68
2022/12/25 10:47:11;;;;;;;;;;;;;;;;;;5111511;28;19908;-68
2022/12/25 10:56:00;;;;;;;;;;;;;;;;;;5152924;27;20022;-68
2022/12/25 10:58:26;;;;;;;;;;;;;;;;;;5152468;27;19915;-69
2022/12/25 11:02:31;;;;;;;;;;;;;;;;;;5152991;27;19915;-68
2022/12/25 11:08:20;;;;;;;;;;;;;;;;;;5111730;27;19913;-68
2022/12/25 11:10:46;;;;;;;;;;;;;;;;;;5111857;28;19958;-68
2022/12/25 11:13:12;;;;;;;;;;;;;;;;;;5110979;28;20319;-70
2022/12/25 11:15:38;;;;;;;;;;;;;;;;;;5110355;28;20257;-70
2022/12/25 11:21:57;;;;;;;;;;;;;;;;;;5091955;27;19938;-68
2022/12/25 11:26:15;;;;;;;;;;;;;;;;;;5111515;27;19916;-69
2022/12/25 11:29:20;;;;;;;;;;;;;;;;;;5111817;27;19916;-69
2022/12/25 11:33:15;;;;;;;;;;;;;;;;;;5111560;27;19912;-68
2022/12/25 11:35:41;;;;;;;;;;;;;;;;;;5111562;28;19912;-68
2022/12/25 11:39:32;;;;;;;;;;;;;;;;;;5111775;27;19922;-68
2022/12/25 11:42:28;;;;;;;;;;;;;;;;;;5112468;27;20360;-70
2022/12/25 11:46:29;;;;;;;;;;;;;;;;;;5152793;27;20076;-69
2022/12/25 11:48:55;;;;;;;;;;;;;;;;;;5152721;27;19969;-68
2022/12/25 11:51:33;;;;;;;;;;;;;;;;;;5112280;27;19922;-68
2022/12/25 11:53:59;;;;;;;;;;;;;;;;;;5111218;28;20376;-68
2022/12/25 11:56:25;;;;;;;;;;;;;;;;;;5111586;28;19994;-68
2022/12/25 11:58:51;;;;;;;;;;;;;;;;;;5111835;28;19908;-69
2022/12/25 12:03:52;;;;;;;;;;;;;;;;;;5132993;27;19911;-68
2022/12/25 12:06:42;;;;;;;;;;;;;;;;;;5111982;27;19916;-69
2022/12/25 12:12:08;;;;;;;;;;;;;;;;;;5111664;27;19916;-68
2022/12/25 12:14:36;;;;;;;;;;;;;;;;;;5111215;28;20348;-69
2022/12/25 12:18:43;;;;;;;;;;;;;;;;;;5112444;27;19916;-68
2022/12/25 12:21:09;;;;;;;;;;;;;;;;;;5111233;28;19999;-68
2022/12/25 12:23:35;;;;;;;;;;;;;;;;;;5111522;28;19940;-68
2022/12/25 12:26:01;;;;;;;;;;;;;;;;;;5110261;28;19908;-68
2022/12/25 12:28:27;;;;;;;;;;;;;;;;;;5110948;28;19969;-69
2022/12/25 12:30:53;;;;;;;;;;;;;;;;;;5110144;28;19908;-68
2022/12/25 12:35:11;;;;;;;;;;;;;;;;;;5111985;27;20307;-68
2022/12/25 12:38:43;;;;;;;;;;;;;;;;;;5091602;27;19917;-70
2022/12/25 12:41:09;;;;;;;;;;;;;;;;;;5091258;28;19999;-68
2022/12/25 12:43:35;;;;;;;;;;;;;;;;;;5090980;28;20361;-68
2022/12/25 12:46:01;;;;;;;;;;;;;;;;;;5091437;28;19962;-68
2022/12/25 12:48:26;;;;;;;;;;;;;;;;;;5091183;28;19912;-68
2022/12/25 12:51:25;;;;;;;;;;;;;;;;;;5111308;27;19923;-69
2022/12/25 12:53:51;;;;;;;;;;;;;;;;;;5111624;28;19912;-68
2022/12/25 12:56:17;;;;;;;;;;;;;;;;;;5112056;28;19908;-69
2022/12/25 12:58:45;;;;;;;;;;;;;;;;;;5110293;28;20335;-71
2022/12/25 13:01:11;;;;;;;;;;;;;;;;;;5111575;28;20416;-70
2022/12/25 13:03:36;;;;;;;;;;;;;;;;;;5111196;28;19912;-68
2022/12/25 13:06:02;;;;;;;;;;;;;;;;;;5110092;28;20008;-68
2022/12/25 13:11:01;;;;;;;;;;;;;;;;;;5111731;27;19916;-68
2022/12/25 13:13:27;;;;;;;;;;;;;;;;;;5111591;28;20015;-70
2022/12/25 13:15:54;;;;;;;;;;;;;;;;;;5111638;28;19961;-69
2022/12/25 13:18:20;;;;;;;;;;;;;;;;;;5111206;28;19912;-69
2022/12/25 13:20:46;;;;;;;;;;;;;;;;;;5110152;28;19908;-70
2022/12/25 13:23:12;;;;;;;;;;;;;;;;;;5111455;28;19955;-69
2022/12/25 13:25:38;;;;;;;;;;;;;;;;;;5111142;28;19908;-69
2022/12/25 13:29:56;;;;;;;;;;;;;;;;;;5111714;27;19918;-69
2022/12/25 13:34:36;;;;;;;;;;;;;;;;;;5112202;27;20303;-68
2022/12/25 13:38:47;;;;;;;;;;;;;;;;;;5111467;27;19912;-68
2022/12/25 13:43:58;;;;;;;;;;;;;;;;;;5111587;28;20389;-69
2022/12/25 13:46:24;;;;;;;;;;;;;;;;;;5111191;28;19955;-69
2022/12/25 13:48:50;;;;;;;;;;;;;;;;;;5110298;28;19908;-69
2022/12/25 13:51:16;;;;;;;;;;;;;;;;;;5111379;28;19962;-69
2022/12/25 13:53:42;;;;;;;;;;;;;;;;;;5111045;28;19908;-69
2022/12/25 13:56:08;;;;;;;;;;;;;;;;;;5111401;28;19931;-68
2022/12/25 13:59:23;;;;;;;;;;;;;;;;;;5111823;27;19919;-69
2022/12/25 14:01:49;;;;;;;;;;;;;;;;;;5109868;28;20007;-68
2022/12/25 14:05:12;;;;;;;;;;;;;;;;;;5112075;27;19916;-68
2022/12/25 14:07:37;;;;;;;;;;;;;;;;;;5111222;28;20328;-68
2022/12/25 14:11:02;;;;;;;;;;;;;;;;;;5112125;27;20287;-68
2022/12/25 14:13:28;;;;;;;;;;;;;;;;;;5111920;28;19952;-69
2022/12/25 14:15:54;;;;;;;;;;;;;;;;;;5111159;28;19915;-68
2022/12/25 14:18:20;;;;;;;;;;;;;;;;;;5111609;28;19915;-68
2022/12/25 14:22:20;;;;;;;;;;;;;;;;;;5111541;27;19935;-69
2022/12/25 14:24:46;;;;;;;;;;;;;;;;;;5111803;28;20428;-69
2022/12/25 14:27:12;;;;;;;;;;;;;;;;;;5111681;28;20003;-70
2022/12/25 14:29:38;;;;;;;;;;;;;;;;;;5111211;28;19912;-70
2022/12/25 14:32:04;;;;;;;;;;;;;;;;;;5111930;28;20336;-70
2022/12/25 14:35:22;;;;;;;;;;;;;;;;;;5152849;27;19921;-69
2022/12/25 14:39:17;;;;;;;;;;;;;;;;;;5111615;27;19916;-68
2022/12/25 14:41:43;;;;;;;;;;;;;;;;;;5111675;28;20456;-68
2022/12/25 14:44:08;;;;;;;;;;;;;;;;;;5111107;28;19994;-68
2022/12/25 14:47:51;;;;;;;;;;;;;;;;;;5111840;27;19912;-68
2022/12/25 14:50:16;;;;;;;;;;;;;;;;;;5111268;28;19912;-68
2022/12/25 14:52:42;;;;;;;;;;;;;;;;;;5111607;28;19915;-68
2022/12/25 14:57:56;;;;;;;;;;;;;;;;;;5111386;27;19916;-67
2022/12/25 15:00:22;;;;;;;;;;;;;;;;;;5111589;28;20026;-68
2022/12/25 15:06:13;;;;;;;;;;;;;;;;;;5091266;27;19913;-67
2022/12/25 15:10:33;;;;;;;;;;;;;;;;;;5091336;27;19939;-67
2022/12/25 15:12:59;;;;;;;;;;;;;;;;;;5091899;28;20424;-68
2022/12/25 15:15:24;;;;;;;;;;;;;;;;;;5089847;28;19951;-68
2022/12/25 15:20:13;;;;;;;;;;;;;;;;;;5091734;27;19917;-67
2022/12/25 15:22:39;;;;;;;;;;;;;;;;;;5089707;28;19999;-67
2022/12/25 15:25:05;;;;;;;;;;;;;;;;;;5089574;28;19908;-67
2022/12/25 15:28:19;;;;;;;;;;;;;;;;;;5091677;27;19916;-68
2022/12/25 15:30:45;;;;;;;;;;;;;;;;;;5091947;28;19955;-67
2022/12/25 15:33:11;;;;;;;;;;;;;;;;;;5090797;28;19915;-69
2022/12/25 15:35:37;;;;;;;;;;;;;;;;;;5091255;28;20352;-67
2022/12/25 15:38:04;;;;;;;;;;;;;;;;;;5091183;28;19909;-67
2022/12/25 15:40:30;;;;;;;;;;;;;;;;;;5091811;28;20053;-67
2022/12/25 15:42:56;;;;;;;;;;;;;;;;;;5091331;28;19912;-67
2022/12/25 15:45:21;;;;;;;;;;;;;;;;;;5090814;28;19908;-68
2022/12/25 15:47:48;;;;;;;;;;;;;;;;;;5090856;28;19923;-68
2022/12/25 15:50:14;;;;;;;;;;;;;;;;;;5091111;28;19947;-68
2022/12/25 15:52:40;;;;;;;;;;;;;;;;;;5090904;28;19912;-68
2022/12/25 15:55:06;;;;;;;;;;;;;;;;;;5089848;28;19909;-68
2022/12/25 15:57:33;;;;;;;;;;;;;;;;;;5089683;28;19909;-68
2022/12/25 15:59:59;;;;;;;;;;;;;;;;;;5089530;28;20368;-68
2022/12/25 16:02:27;;;;;;;;;;;;;;;;;;5091158;28;19909;-69
2022/12/25 16:04:53;;;;;;;;;;;;;;;;;;5089724;28;19915;-68
2022/12/25 16:07:20;;;;;;;;;;;;;;;;;;5089199;28;20033;-68
2022/12/25 16:09:46;;;;;;;;;;;;;;;;;;5089270;28;20333;-68
2022/12/25 16:12:12;;;;;;;;;;;;;;;;;;5089185;28;20007;-68
2022/12/25 16:14:38;;;;;;;;;;;;;;;;;;5088762;28;19978;-68
2022/12/25 16:17:04;;;;;;;;;;;;;;;;;;5089113;28;19909;-68
2022/12/25 16:19:30;;;;;;;;;;;;;;;;;;5090355;28;19908;-68
2022/12/25 16:21:56;;;;;;;;;;;;;;;;;;5089953;28;19915;-68
2022/12/25 16:24:22;;;;;;;;;;;;;;;;;;5088976;28;19909;-68
2022/12/25 16:26:48;;;;;;;;;;;;;;;;;;5097919;28;19920;-68
2022/12/25 16:29:14;;;;;;;;;;;;;;;;;;5110043;28;19999;-68
2022/12/25 16:31:40;;;;;;;;;;;;;;;;;;5110476;28;19912;-68
2022/12/25 16:34:06;;;;;;;;;;;;;;;;;;5110418;28;20001;-68
2022/12/25 16:36:32;;;;;;;;;;;;;;;;;;5091689;28;19915;-69
2022/12/25 16:38:58;;;;;;;;;;;;;;;;;;5082438;28;19912;-68
2022/12/25 16:41:23;;;;;;;;;;;;;;;;;;5077984;28;20007;-68
2022/12/25 16:43:49;;;;;;;;;;;;;;;;;;5096630;28;19974;-70
2022/12/25 16:46:15;;;;;;;;;;;;;;;;;;5096509;28;19911;-67
2022/12/25 16:48:41;;;;;;;;;;;;;;;;;;5095872;28;19912;-68
2022/12/25 16:51:07;;;;;;;;;;;;;;;;;;5096491;28;19953;-67
2022/12/25 16:53:34;;;;;;;;;;;;;;;;;;5096386;28;19954;-67
2022/12/25 16:55:59;;;;;;;;;;;;;;;;;;5096162;28;19919;-70
2022/12/25 16:58:25;;;;;;;;;;;;;;;;;;5096616;28;19909;-68
2022/12/25 17:00:51;;;;;;;;;;;;;;;;;;5096335;28;19961;-68
2022/12/25 17:03:17;;;;;;;;;;;;;;;;;;5095805;28;19915;-70
2022/12/25 17:05:43;;;;;;;;;;;;;;;;;;5096343;28;19914;-68
2022/12/25 17:08:09;;;;;;;;;;;;;;;;;;5096035;28;20288;-68
2022/12/25 17:10:35;;;;;;;;;;;;;;;;;;5095721;28;20365;-68
2022/12/25 17:13:01;;;;;;;;;;;;;;;;;;5096033;28;20272;-68
2022/12/25 17:15:27;;;;;;;;;;;;;;;;;;5096051;28;19954;-68
2022/12/25 17:17:53;;;;;;;;;;;;;;;;;;5095533;28;19908;-67
2022/12/25 17:20:19;;;;;;;;;;;;;;;;;;5077790;28;20360;-67
2022/12/25 17:22:45;;;;;;;;;;;;;;;;;;5095898;28;20283;-68
2022/12/25 17:25:11;;;;;;;;;;;;;;;;;;5095459;28;19909;-68
2022/12/25 17:27:37;;;;;;;;;;;;;;;;;;5077468;28;19927;-69
2022/12/25 17:30:03;;;;;;;;;;;;;;;;;;5095830;28;19909;-68
2022/12/25 17:32:29;;;;;;;;;;;;;;;;;;5095612;28;20410;-68
2022/12/25 17:34:54;;;;;;;;;;;;;;;;;;5095594;28;20352;-68
2022/12/25 17:37:20;;;;;;;;;;;;;;;;;;5095865;28;20317;-68
2022/12/25 17:39:46;;;;;;;;;;;;;;;;;;5095186;28;20307;-68
2022/12/25 17:42:12;;;;;;;;;;;;;;;;;;5077322;28;19908;-68
2022/12/25 17:44:38;;;;;;;;;;;;;;;;;;5095455;28;19923;-67
2022/12/25 17:47:04;;;;;;;;;;;;;;;;;;5094912;28;19916;-68
2022/12/25 17:49:30;;;;;;;;;;;;;;;;;;5094885;28;19915;-68
2022/12/25 17:51:56;;;;;;;;;;;;;;;;;;5094570;28;20368;-67
2022/12/25 17:54:22;;;;;;;;;;;;;;;;;;5095373;28;19914;-67
2022/12/25 17:56:48;;;;;;;;;;;;;;;;;;5095302;28;20250;-67
2022/12/25 17:59:16;;;;;;;;;;;;;;;;;;5094944;28;19909;-68
2022/12/25 18:01:42;;;;;;;;;;;;;;;;;;5095189;28;19908;-68
2022/12/25 18:04:08;;;;;;;;;;;;;;;;;;5095076;28;19953;-68
2022/12/25 18:06:34;;;;;;;;;;;;;;;;;;5094755;28;20373;-67
2022/12/25 18:09:00;;;;;;;;;;;;;;;;;;5095000;28;20276;-68
2022/12/25 18:11:27;;;;;;;;;;;;;;;;;;5076657;28;19982;-67
2022/12/25 18:13:53;;;;;;;;;;;;;;;;;;5094456;28;19915;-68
2022/12/25 18:16:19;;;;;;;;;;;;;;;;;;5094922;28;20291;-68
2022/12/25 18:18:45;;;;;;;;;;;;;;;;;;5094842;28;19978;-68
2022/12/25 18:21:11;;;;;;;;;;;;;;;;;;5094453;28;19915;-69
2022/12/25 18:23:37;;;;;;;;;;;;;;;;;;5094731;28;19943;-68
2022/12/25 18:26:03;;;;;;;;;;;;;;;;;;5094445;28;19978;-68
2022/12/25 18:28:29;;;;;;;;;;;;;;;;;;5094324;28;19912;-68
2022/12/25 18:30:55;;;;;;;;;;;;;;;;;;5094583;28;19959;-68
2022/12/25 18:33:21;;;;;;;;;;;;;;;;;;5094630;28;19908;-69
2022/12/25 18:35:47;;;;;;;;;;;;;;;;;;5094183;28;19915;-69
2022/12/25 18:38:13;;;;;;;;;;;;;;;;;;5094522;28;20276;-69
2022/12/25 18:40:39;;;;;;;;;;;;;;;;;;5094390;28;19919;-68
2022/12/25 18:43:05;;;;;;;;;;;;;;;;;;5093866;28;19916;-68
2022/12/25 18:45:31;;;;;;;;;;;;;;;;;;5094235;28;19966;-68
2022/12/25 18:47:57;;;;;;;;;;;;;;;;;;5094436;28;19916;-68
2022/12/25 18:50:23;;;;;;;;;;;;;;;;;;5094096;28;19908;-68
2022/12/25 18:52:49;;;;;;;;;;;;;;;;;;5076035;28;19959;-68
2022/12/25 18:55:14;;;;;;;;;;;;;;;;;;5093612;28;19908;-68
2022/12/25 18:57:40;;;;;;;;;;;;;;;;;;5094020;28;19915;-68
2022/12/25 19:00:06;;;;;;;;;;;;;;;;;;5094099;28;19916;-68
2022/12/25 19:02:32;;;;;;;;;;;;;;;;;;5093370;28;19999;-68
2022/12/25 19:04:58;;;;;;;;;;;;;;;;;;5093986;28;20280;-68
2022/12/25 19:07:24;;;;;;;;;;;;;;;;;;5093915;28;19916;-68
2022/12/25 19:09:50;;;;;;;;;;;;;;;;;;5093397;28;19969;-68
2022/12/25 19:12:16;;;;;;;;;;;;;;;;;;5093973;28;20010;-67
2022/12/25 19:14:42;;;;;;;;;;;;;;;;;;5093939;28;19915;-67
2022/12/25 19:17:09;;;;;;;;;;;;;;;;;;5075436;28;20288;-68
2022/12/25 19:19:35;;;;;;;;;;;;;;;;;;5093935;28;20425;-70
2022/12/25 19:22:01;;;;;;;;;;;;;;;;;;5075802;28;19934;-69
2022/12/25 19:24:27;;;;;;;;;;;;;;;;;;5093432;28;20406;-69
2022/12/25 19:26:53;;;;;;;;;;;;;;;;;;5093911;28;20303;-68
2022/12/25 19:29:19;;;;;;;;;;;;;;;;;;5075652;28;20261;-68
2022/12/25 19:31:45;;;;;;;;;;;;;;;;;;5093280;28;19915;-68
2022/12/25 19:34:10;;;;;;;;;;;;;;;;;;5093836;28;19944;-68
2022/12/25 19:36:36;;;;;;;;;;;;;;;;;;5093728;28;19962;-69
2022/12/25 19:39:02;;;;;;;;;;;;;;;;;;5093400;28;19908;-69
2022/12/25 19:41:28;;;;;;;;;;;;;;;;;;5093780;28;19908;-67
2022/12/25 19:43:54;;;;;;;;;;;;;;;;;;5093671;28;20011;-67
2022/12/25 19:46:20;;;;;;;;;;;;;;;;;;5093144;28;19916;-69
2022/12/25 19:48:46;;;;;;;;;;;;;;;;;;5093617;28;20006;-68
2022/12/25 19:51:12;;;;;;;;;;;;;;;;;;5093646;28;19908;-68